^^
Station Historical Data
Daily Summary for August 17, 2017 Units:  Both    English   Metric
« Previous Day
Next Day »
Daily Weekly Monthly Yearly Custom
  High: Low: Average:
Temperature: 66.9 °F /  19.4 °C 35.8 °F /  2.1 °C 50.7 °F /  10.4 °C
Dew Point: 28.6 °F /  -1.9 °C 4.1 °F /  -15.5 °C 22.3 °F /  -5.4 °C
Humidity: 59% 21% 34%
Wind Speed: 8.1mph /  13km/h - 1mph /  1.6km/h
Wind Gust: 13.0mph /  20.9km/h - -
Wind- - SE
Pressure: 30.40 in /  1029.3 hPa 30.16 in /  1021.2 hPa -
Precipitation: 0.00 in /  0 mm    
Historical Graphs
 
 
Tabular Data for August 17, 2017
Time Temperature Dew Point Pressure Wind Wind Speed Wind Gust Humidity Rainfall Rate (Hourly) solar Conditions
00:04 41.4 °F /  5.2 °C 4.3 °F /  -15.4 °C 30.18in /  1021.9hPa Calm   1.0mph /  1.6km/h 21% 0.00in /  0mm 0.0 W/m2
00:10 41.2 °F /  5.1 °C 4.1 °F /  -15.5 °C 30.18in /  1021.9hPa Calm     21% 0.00in /  0mm 0.0 W/m2
00:16 41.2 °F /  5.1 °C 5.2 °F /  -14.9 °C 30.18in /  1021.9hPa Calm   1.0mph /  1.6km/h 22% 0.00in /  0mm 0.0 W/m2
00:22 40.8 °F /  4.9 °C 4.8 °F /  -15.1 °C 30.17in /  1021.6hPa Calm   1.0mph /  1.6km/h 22% 0.00in /  0mm 0.0 W/m2
00:29 40.6 °F /  4.8 °C 4.8 °F /  -15.1 °C 30.18in /  1021.9hPa Calm     22% 0.00in /  0mm 0.0 W/m2
00:35 40.5 °F /  4.7 °C 5.5 °F /  -14.7 °C 30.18in /  1021.9hPa Calm     23% 0.00in /  0mm 0.0 W/m2
00:41 40.3 °F /  4.6 °C 5.4 °F /  -14.8 °C 30.17in /  1021.6hPa Calm     23% 0.00in /  0mm 0.0 W/m2
00:47 39.9 °F /  4.4 °C 6.1 °F /  -14.4 °C 30.17in /  1021.6hPa Calm   1.0mph /  1.6km/h 24% 0.00in /  0mm 0.0 W/m2
00:53 39.7 °F /  4.3 °C 5.9 °F /  -14.5 °C 30.17in /  1021.6hPa Calm     24% 0.00in /  0mm 0.0 W/m2
00:59 39.6 °F /  4.2 °C 6.6 °F /  -14.1 °C 30.17in /  1021.6hPa Calm     25% 0.00in /  0mm 0.0 W/m2
01:05 39.4 °F /  4.1 °C 7.3 °F /  -13.7 °C 30.17in /  1021.6hPa Calm   2.0mph /  3.2km/h 26% 0.00in /  0mm 0.0 W/m2
01:12 39.2 °F /  4 °C 7.2 °F /  -13.8 °C 30.17in /  1021.6hPa Calm     26% 0.00in /  0mm 0.0 W/m2
01:18 39.0 °F /  3.9 °C 7.9 °F /  -13.4 °C 30.16in /  1021.2hPa Calm   1.0mph /  1.6km/h 27% 0.00in /  0mm 0.0 W/m2
01:24 38.8 °F /  3.8 °C 6.8 °F /  -14 °C 30.17in /  1021.6hPa Calm     26% 0.00in /  0mm 0.0 W/m2
01:30 38.7 °F /  3.7 °C 7.5 °F /  -13.6 °C 30.17in /  1021.6hPa Calm   1.0mph /  1.6km/h 27% 0.00in /  0mm 0.0 W/m2
01:36 38.7 °F /  3.7 °C 7.5 °F /  -13.6 °C 30.17in /  1021.6hPa Calm   2.0mph /  3.2km/h 27% 0.00in /  0mm 0.0 W/m2
01:42 38.8 °F /  3.8 °C 7.7 °F /  -13.5 °C 30.17in /  1021.6hPa Calm   2.0mph /  3.2km/h 27% 0.00in /  0mm 0.0 W/m2
01:48 39.2 °F /  4 °C 8.8 °F /  -12.9 °C 30.17in /  1021.6hPa Calm   1.0mph /  1.6km/h 28% 0.00in /  0mm 0.0 W/m2
01:55 39.4 °F /  4.1 °C 9.7 °F /  -12.4 °C 30.17in /  1021.6hPa Calm     29% 0.00in /  0mm 0.0 W/m2
02:01 39.6 °F /  4.2 °C 11.5 °F /  -11.4 °C 30.17in /  1021.6hPa Calm   1.0mph /  1.6km/h 31% 0.00in /  0mm 0.0 W/m2
02:07 39.7 °F /  4.3 °C 10.8 °F /  -11.8 °C 30.17in /  1021.6hPa Calm   1.0mph /  1.6km/h 30% 0.00in /  0mm 0.0 W/m2
02:13 39.9 °F /  4.4 °C 10.9 °F /  -11.7 °C 30.17in /  1021.6hPa Calm   4.0mph /  6.4km/h 30% 0.00in /  0mm 0.0 W/m2
02:19 40.3 °F /  4.6 °C 11.3 °F /  -11.5 °C 30.17in /  1021.6hPa Calm     30% 0.00in /  0mm 0.0 W/m2
02:25 40.5 °F /  4.7 °C 12.9 °F /  -10.6 °C 30.16in /  1021.2hPa Calm   1.0mph /  1.6km/h 32% 0.00in /  0mm 0.0 W/m2
02:32 40.5 °F /  4.7 °C 12.9 °F /  -10.6 °C 30.16in /  1021.2hPa East 0.9mph /  1.4km/h 1.0mph /  1.6km/h 32% 0.00in /  0mm 0.0 W/m2
02:38 40.6 °F /  4.8 °C 12.4 °F /  -10.9 °C 30.17in /  1021.6hPa Calm   2.0mph /  3.2km/h 31% 0.00in /  0mm 0.0 W/m2
02:44 40.8 °F /  4.9 °C 16.5 °F /  -8.6 °C 30.17in /  1021.6hPa SE 4.0mph /  6.4km/h 9.0mph /  14.5km/h 37% 0.00in /  0mm 0.0 W/m2
02:50 43.0 °F /  6.1 °C 19.0 °F /  -7.2 °C 30.17in /  1021.6hPa SE 2.0mph /  3.2km/h 8.0mph /  12.9km/h 38% 0.00in /  0mm 0.0 W/m2
02:56 44.8 °F /  7.1 °C 18.9 °F /  -7.3 °C 30.17in /  1021.6hPa South 4.0mph /  6.4km/h 5.0mph /  8km/h 35% 0.00in /  0mm 0.0 W/m2
03:02 45.7 °F /  7.6 °C 18.1 °F /  -7.7 °C 30.17in /  1021.6hPa SSE 6.0mph /  9.7km/h 8.0mph /  12.9km/h 33% 0.00in /  0mm 0.0 W/m2
03:09 45.9 °F /  7.7 °C 18.3 °F /  -7.6 °C 30.17in /  1021.6hPa South 0.9mph /  1.4km/h 10.0mph /  16.1km/h 33% 0.00in /  0mm 0.0 W/m2
03:15 45.7 °F /  7.6 °C 18.1 °F /  -7.7 °C 30.17in /  1021.6hPa Calm   4.0mph /  6.4km/h 33% 0.00in /  0mm 0.0 W/m2
03:21 45.3 °F /  7.4 °C 18.7 °F /  -7.4 °C 30.17in /  1021.6hPa SE 4.9mph /  7.9km/h 10.0mph /  16.1km/h 34% 0.00in /  0mm 0.0 W/m2
03:27 45.1 °F /  7.3 °C 19.0 °F /  -7.2 °C 30.18in /  1021.9hPa SE 2.9mph /  4.7km/h 6.0mph /  9.7km/h 35% 0.00in /  0mm 0.0 W/m2
03:33 44.8 °F /  7.1 °C 18.9 °F /  -7.3 °C 30.18in /  1021.9hPa Calm   5.0mph /  8km/h 35% 0.00in /  0mm 0.0 W/m2
03:39 44.2 °F /  6.8 °C 19.0 °F /  -7.2 °C 30.18in /  1021.9hPa ESE 0.9mph /  1.4km/h 5.0mph /  8km/h 36% 0.00in /  0mm 0.0 W/m2
03:45 44.1 °F /  6.7 °C 19.4 °F /  -7 °C 30.17in /  1021.6hPa SE 2.0mph /  3.2km/h 3.0mph /  4.8km/h 37% 0.00in /  0mm 0.0 W/m2
03:51 43.7 °F /  6.5 °C 19.0 °F /  -7.2 °C 30.18in /  1021.9hPa Calm   5.0mph /  8km/h 37% 0.00in /  0mm 0.0 W/m2
03:57 43.5 °F /  6.4 °C 19.6 °F /  -6.9 °C 30.18in /  1021.9hPa SSE 2.9mph /  4.7km/h 4.0mph /  6.4km/h 38% 0.00in /  0mm 0.0 W/m2
04:03 43.3 °F /  6.3 °C 18.9 °F /  -7.3 °C 30.18in /  1021.9hPa Calm     37% 0.00in /  0mm 0.0 W/m2
04:10 43.0 °F /  6.1 °C 18.5 °F /  -7.5 °C 30.18in /  1021.9hPa Calm     37% 0.00in /  0mm 0.0 W/m2
04:16 42.6 °F /  5.9 °C 17.6 °F /  -8 °C 30.18in /  1021.9hPa Calm     36% 0.00in /  0mm 0.0 W/m2
04:22 42.1 °F /  5.6 °C 17.6 °F /  -8 °C 30.19in /  1022.2hPa Calm     37% 0.00in /  0mm 0.0 W/m2
04:28 41.7 °F /  5.4 °C 19.2 °F /  -7.1 °C 30.19in /  1022.2hPa Calm     40% 0.00in /  0mm 0.0 W/m2
04:34 41.5 °F /  5.3 °C 19.6 °F /  -6.9 °C 30.18in /  1021.9hPa Calm     41% 0.00in /  0mm 0.0 W/m2
04:38 41.4 °F /  5.2 °C 19.9 °F /  -6.7 °C 30.19in /  1022.2hPa Calm     42% 0.00in /  0mm 0.0 W/m2
04:44 41.0 °F /  5 °C 18.5 °F /  -7.5 °C 30.19in /  1022.2hPa Calm     40% 0.00in /  0mm 0.0 W/m2
04:50 40.5 °F /  4.7 °C 17.4 °F /  -8.1 °C 30.19in /  1022.2hPa Calm     39% 0.00in /  0mm 0.0 W/m2
04:56 39.9 °F /  4.4 °C 17.6 °F /  -8 °C 30.19in /  1022.2hPa Calm     40% 0.00in /  0mm 0.0 W/m2
05:03 39.6 °F /  4.2 °C 17.2 °F /  -8.2 °C 30.19in /  1022.2hPa Calm     40% 0.00in /  0mm 0.0 W/m2
05:09 39.0 °F /  3.9 °C 17.8 °F /  -7.9 °C 30.19in /  1022.2hPa Calm     42% 0.00in /  0mm 0.0 W/m2
05:15 38.7 °F /  3.7 °C 17.1 °F /  -8.3 °C 30.19in /  1022.2hPa Calm     41% 0.00in /  0mm 0.0 W/m2
05:21 38.1 °F /  3.4 °C 17.6 °F /  -8 °C 30.19in /  1022.2hPa Calm     43% 0.00in /  0mm 0.0 W/m2
05:27 37.8 °F /  3.2 °C 17.2 °F /  -8.2 °C 30.20in /  1022.6hPa Calm     43% 0.00in /  0mm 0.0 W/m2
05:33 37.6 °F /  3.1 °C 17.1 °F /  -8.3 °C 30.20in /  1022.6hPa Calm     43% 0.00in /  0mm 0.0 W/m2
05:39 37.0 °F /  2.8 °C 18.1 °F /  -7.7 °C 30.20in /  1022.6hPa Calm     46% 0.00in /  0mm 0.0 W/m2
05:46 36.9 °F /  2.7 °C 18.5 °F /  -7.5 °C 30.21in /  1022.9hPa Calm     47% 0.00in /  0mm 0.0 W/m2
05:52 36.7 °F /  2.6 °C 19.8 °F /  -6.8 °C 30.21in /  1022.9hPa Calm     50% 0.00in /  0mm 0.0 W/m2
05:58 36.5 °F /  2.5 °C 21.4 °F /  -5.9 °C 30.21in /  1022.9hPa Calm     54% 0.00in /  0mm 0.0 W/m2
06:04 36.3 °F /  2.4 °C 20.8 °F /  -6.2 °C 30.22in /  1023.2hPa Calm     53% 0.00in /  0mm 0.0 W/m2
06:10 36.3 °F /  2.4 °C 20.8 °F /  -6.2 °C 30.22in /  1023.2hPa Calm     53% 0.00in /  0mm 0.0 W/m2
06:16 36.0 °F /  2.2 °C 20.5 °F /  -6.4 °C 30.22in /  1023.2hPa Calm     53% 0.00in /  0mm 0.0 W/m2
06:22 35.8 °F /  2.1 °C 21.2 °F /  -6 °C 30.22in /  1023.2hPa Calm   1.0mph /  1.6km/h 55% 0.00in /  0mm 5.0 W/m2
06:28 35.8 °F /  2.1 °C 21.6 °F /  -5.8 °C 30.22in /  1023.2hPa Calm   1.0mph /  1.6km/h 56% 0.00in /  0mm 7.0 W/m2
06:35 35.8 °F /  2.1 °C 22.1 °F /  -5.5 °C 30.22in /  1023.2hPa Calm   1.0mph /  1.6km/h 57% 0.00in /  0mm 11.0 W/m2
06:41 36.1 °F /  2.3 °C 22.5 °F /  -5.3 °C 30.22in /  1023.2hPa Calm     57% 0.00in /  0mm 12.0 W/m2
06:47 36.3 °F /  2.4 °C 22.5 °F /  -5.3 °C 30.22in /  1023.2hPa Calm     57% 0.00in /  0mm 12.0 W/m2
06:53 36.3 °F /  2.4 °C 22.5 °F /  -5.3 °C 30.22in /  1023.2hPa Calm     57% 0.00in /  0mm 14.0 W/m2
06:59 36.7 °F /  2.6 °C 22.8 °F /  -5.1 °C 30.22in /  1023.2hPa Calm     57% 0.00in /  0mm 16.0 W/m2
07:05 36.9 °F /  2.7 °C 23.5 °F /  -4.7 °C 30.23in /  1023.6hPa Calm     58% 0.00in /  0mm 16.0 W/m2
07:11 37.2 °F /  2.9 °C 24.3 °F /  -4.3 °C 30.23in /  1023.6hPa Calm     59% 0.00in /  0mm 18.0 W/m2
07:17 37.8 °F /  3.2 °C 24.8 °F /  -4 °C 30.23in /  1023.6hPa Calm     59% 0.00in /  0mm 19.0 W/m2
07:23 38.3 °F /  3.5 °C 25.2 °F /  -3.8 °C 30.23in /  1023.6hPa Calm     59% 0.00in /  0mm 19.0 W/m2
07:30 39.0 °F /  3.9 °C 25.5 °F /  -3.6 °C 30.23in /  1023.6hPa Calm     58% 0.00in /  0mm 21.0 W/m2
07:36 39.7 °F /  4.3 °C 25.3 °F /  -3.7 °C 30.24in /  1023.9hPa Calm     56% 0.00in /  0mm 21.0 W/m2
07:42 40.3 °F /  4.6 °C 24.4 °F /  -4.2 °C 30.24in /  1023.9hPa Calm     53% 0.00in /  0mm 23.0 W/m2
07:48 40.6 °F /  4.8 °C 24.8 °F /  -4 °C 30.24in /  1023.9hPa Calm   1.0mph /  1.6km/h 53% 0.00in /  0mm 23.0 W/m2
07:54 41.4 °F /  5.2 °C 25.5 °F /  -3.6 °C 30.24in /  1023.9hPa Calm     53% 0.00in /  0mm 25.0 W/m2
08:00 41.9 °F /  5.5 °C 25.5 °F /  -3.6 °C 30.24in /  1023.9hPa Calm     52% 0.00in /  0mm 25.0 W/m2
08:07 42.4 °F /  5.8 °C 25.5 °F /  -3.6 °C 30.24in /  1023.9hPa Calm     51% 0.00in /  0mm 25.0 W/m2
08:13 43.2 °F /  6.2 °C 25.3 °F /  -3.7 °C 30.25in /  1024.3hPa Calm     49% 0.00in /  0mm 26.0 W/m2
08:19 44.1 °F /  6.7 °C 25.7 °F /  -3.5 °C 30.25in /  1024.3hPa Calm   2.0mph /  3.2km/h 48% 0.00in /  0mm 26.0 W/m2
08:25 44.8 °F /  7.1 °C 25.7 °F /  -3.5 °C 30.25in /  1024.3hPa Calm   1.0mph /  1.6km/h 47% 0.00in /  0mm 28.0 W/m2
08:31 45.3 °F /  7.4 °C 25.2 °F /  -3.8 °C 30.25in /  1024.3hPa Calm     45% 0.00in /  0mm 134.0 W/m2
08:37 46.0 °F /  7.8 °C 25.9 °F /  -3.4 °C 30.25in /  1024.3hPa Calm     45% 0.00in /  0mm 483.0 W/m2
08:43 46.9 °F /  8.3 °C 25.5 °F /  -3.6 °C 30.25in /  1024.3hPa Calm     43% 0.00in /  0mm 508.0 W/m2
08:49 47.8 °F /  8.8 °C 25.9 °F /  -3.4 °C 30.25in /  1024.3hPa Calm     42% 0.00in /  0mm 527.0 W/m2
08:56 48.9 °F /  9.4 °C 26.2 °F /  -3.2 °C 30.25in /  1024.3hPa SSW 0.9mph /  1.4km/h 1.0mph /  1.6km/h 41% 0.00in /  0mm 547.0 W/m2
09:02 50.0 °F /  10 °C 26.6 °F /  -3 °C 30.25in /  1024.3hPa Calm   1.0mph /  1.6km/h 40% 0.00in /  0mm 564.0 W/m2
09:08 50.5 °F /  10.3 °C 25.9 °F /  -3.4 °C 30.26in /  1024.6hPa Calm   1.0mph /  1.6km/h 38% 0.00in /  0mm 584.0 W/m2
09:14 51.1 °F /  10.6 °C 25.7 °F /  -3.5 °C 30.26in /  1024.6hPa Calm   1.0mph /  1.6km/h 37% 0.00in /  0mm 601.0 W/m2
09:20 51.4 °F /  10.8 °C 25.3 °F /  -3.7 °C 30.26in /  1024.6hPa Calm     36% 0.00in /  0mm 619.0 W/m2
09:26 52.5 °F /  11.4 °C 26.2 °F /  -3.2 °C 30.26in /  1024.6hPa Calm   1.0mph /  1.6km/h 36% 0.00in /  0mm 638.0 W/m2
09:32 53.8 °F /  12.1 °C 27.5 °F /  -2.5 °C 30.27in /  1024.9hPa ENE 4.0mph /  6.4km/h 6.0mph /  9.7km/h 36% 0.00in /  0mm 652.0 W/m2
09:39 54.5 °F /  12.5 °C 27.3 °F /  -2.6 °C 30.27in /  1024.9hPa ENE 2.9mph /  4.7km/h 8.0mph /  12.9km/h 35% 0.00in /  0mm 666.0 W/m2
09:45 55.2 °F /  12.9 °C 27.3 °F /  -2.6 °C 30.27in /  1024.9hPa NNW 2.0mph /  3.2km/h 7.0mph /  11.3km/h 34% 0.00in /  0mm 680.0 W/m2
09:51 55.8 °F /  13.2 °C 27.9 °F /  -2.3 °C 30.26in /  1024.6hPa ENE 2.9mph /  4.7km/h 3.0mph /  4.8km/h 34% 0.00in /  0mm 694.0 W/m2
09:57 56.1 °F /  13.4 °C 26.6 °F /  -3 °C 30.26in /  1024.6hPa Calm   5.0mph /  8km/h 32% 0.00in /  0mm 707.0 W/m2
09:59 56.3 °F /  13.5 °C 26.8 °F /  -2.9 °C 30.26in /  1024.6hPa Calm   4.0mph /  6.4km/h 32% 0.00in /  0mm 712.0 W/m2
10:05 56.8 °F /  13.8 °C 27.3 °F /  -2.6 °C 30.26in /  1024.6hPa SE 0.9mph /  1.4km/h 5.0mph /  8km/h 32% 0.00in /  0mm 722.0 W/m2
10:11 57.6 °F /  14.2 °C 27.9 °F /  -2.3 °C 30.26in /  1024.6hPa East 2.9mph /  4.7km/h 5.0mph /  8km/h 32% 0.00in /  0mm 740.0 W/m2
10:17 57.9 °F /  14.4 °C 27.5 °F /  -2.5 °C 30.26in /  1024.6hPa NE 2.9mph /  4.7km/h 9.0mph /  14.5km/h 31% 0.00in /  0mm 747.0 W/m2
10:23 57.9 °F /  14.4 °C 27.5 °F /  -2.5 °C 30.26in /  1024.6hPa North 2.9mph /  4.7km/h 6.0mph /  9.7km/h 31% 0.00in /  0mm 756.0 W/m2
10:30 58.5 °F /  14.7 °C 27.9 °F /  -2.3 °C 30.26in /  1024.6hPa ENE 2.9mph /  4.7km/h 4.0mph /  6.4km/h 31% 0.00in /  0mm 766.0 W/m2
10:36 58.5 °F /  14.7 °C 27.1 °F /  -2.7 °C 30.27in /  1024.9hPa Calm   5.0mph /  8km/h 30% 0.00in /  0mm 775.0 W/m2
10:42 58.8 °F /  14.9 °C 27.5 °F /  -2.5 °C 30.26in /  1024.6hPa WNW 2.0mph /  3.2km/h 2.0mph /  3.2km/h 30% 0.00in /  0mm 784.0 W/m2
10:48 58.6 °F /  14.8 °C 27.3 °F /  -2.6 °C 30.26in /  1024.6hPa Calm     30% 0.00in /  0mm 791.0 W/m2
10:54 58.8 °F /  14.9 °C 27.5 °F /  -2.5 °C 30.26in /  1024.6hPa WNW 2.9mph /  4.7km/h 5.0mph /  8km/h 30% 0.00in /  0mm 800.0 W/m2
11:00 59.5 °F /  15.3 °C 28.0 °F /  -2.2 °C 30.26in /  1024.6hPa Calm   3.0mph /  4.8km/h 30% 0.00in /  0mm 807.0 W/m2
11:06 60.1 °F /  15.6 °C 27.7 °F /  -2.4 °C 30.26in /  1024.6hPa East 2.9mph /  4.7km/h 4.0mph /  6.4km/h 29% 0.00in /  0mm 810.0 W/m2
11:13 60.6 °F /  15.9 °C 27.3 °F /  -2.6 °C 30.26in /  1024.6hPa Calm   4.0mph /  6.4km/h 28% 0.00in /  0mm 812.0 W/m2
11:19 60.8 °F /  16 °C 27.5 °F /  -2.5 °C 30.26in /  1024.6hPa Calm   2.0mph /  3.2km/h 28% 0.00in /  0mm 817.0 W/m2
11:25 61.5 °F /  16.4 °C 28.0 °F /  -2.2 °C 30.25in /  1024.3hPa North 2.0mph /  3.2km/h 9.0mph /  14.5km/h 28% 0.00in /  0mm 823.0 W/m2
11:31 62.1 °F /  16.7 °C 27.7 °F /  -2.4 °C 30.25in /  1024.3hPa East 4.0mph /  6.4km/h 7.0mph /  11.3km/h 27% 0.00in /  0mm 826.0 W/m2
11:37 62.4 °F /  16.9 °C 28.0 °F /  -2.2 °C 30.25in /  1024.3hPa NW 0.9mph /  1.4km/h 8.0mph /  12.9km/h 27% 0.00in /  0mm 826.0 W/m2
11:43 62.4 °F /  16.9 °C 28.0 °F /  -2.2 °C 30.25in /  1024.3hPa North 8.1mph /  13km/h 8.1mph /  13km/h 27% 0.00in /  0mm 830.0 W/m2
11:49 62.8 °F /  17.1 °C 28.2 °F /  -2.1 °C 30.24in /  1023.9hPa NW 0.9mph /  1.4km/h 9.0mph /  14.5km/h 27% 0.00in /  0mm 828.0 W/m2
11:56 62.8 °F /  17.1 °C 28.2 °F /  -2.1 °C 30.24in /  1023.9hPa Calm   6.0mph /  9.7km/h 27% 0.00in /  0mm 830.0 W/m2
12:02 63.1 °F /  17.3 °C 27.7 °F /  -2.4 °C 30.24in /  1023.9hPa Calm   8.0mph /  12.9km/h 26% 0.00in /  0mm 828.0 W/m2
12:08 63.1 °F /  17.3 °C 27.7 °F /  -2.4 °C 30.24in /  1023.9hPa Calm   4.0mph /  6.4km/h 26% 0.00in /  0mm 826.0 W/m2
12:14 63.3 °F /  17.4 °C 27.9 °F /  -2.3 °C 30.24in /  1023.9hPa NE 4.0mph /  6.4km/h 9.0mph /  14.5km/h 26% 0.00in /  0mm 823.0 W/m2
12:20 63.9 °F /  17.7 °C 28.2 °F /  -2.1 °C 30.24in /  1023.9hPa Calm   1.0mph /  1.6km/h 26% 0.00in /  0mm 819.0 W/m2
12:26 63.9 °F /  17.7 °C 28.2 °F /  -2.1 °C 30.24in /  1023.9hPa Calm   9.0mph /  14.5km/h 26% 0.00in /  0mm 816.0 W/m2
12:32 64.2 °F /  17.9 °C 27.7 °F /  -2.4 °C 30.24in /  1023.9hPa NW 0.9mph /  1.4km/h 5.0mph /  8km/h 25% 0.00in /  0mm 812.0 W/m2
12:38 64.6 °F /  18.1 °C 28.0 °F /  -2.2 °C 30.24in /  1023.9hPa NNW 2.9mph /  4.7km/h 4.0mph /  6.4km/h 25% 0.00in /  0mm 805.0 W/m2
12:45 65.1 °F /  18.4 °C 27.5 °F /  -2.5 °C 30.24in /  1023.9hPa NNE 0.9mph /  1.4km/h 7.0mph /  11.3km/h 24% 0.00in /  0mm 800.0 W/m2
12:51 65.3 °F /  18.5 °C 27.5 °F /  -2.5 °C 30.23in /  1023.6hPa Calm     24% 0.00in /  0mm 791.0 W/m2
12:57 65.5 °F /  18.6 °C 27.7 °F /  -2.4 °C 30.23in /  1023.6hPa Calm   9.0mph /  14.5km/h 24% 0.00in /  0mm 784.0 W/m2
13:03 65.8 °F /  18.8 °C 27.0 °F /  -2.8 °C 30.23in /  1023.6hPa Calm   7.0mph /  11.3km/h 23% 0.00in /  0mm 779.0 W/m2
13:09 66.6 °F /  19.2 °C 28.6 °F /  -1.9 °C 30.23in /  1023.6hPa Calm   2.0mph /  3.2km/h 24% 0.00in /  0mm 770.0 W/m2
13:15 66.6 °F /  19.2 °C 27.7 °F /  -2.4 °C 30.23in /  1023.6hPa NNE 4.9mph /  7.9km/h 9.0mph /  14.5km/h 23% 0.00in /  0mm 758.0 W/m2
13:21 66.6 °F /  19.2 °C 27.7 °F /  -2.4 °C 30.23in /  1023.6hPa NE 2.0mph /  3.2km/h 10.0mph /  16.1km/h 23% 0.00in /  0mm 749.0 W/m2
13:27 66.4 °F /  19.1 °C 27.5 °F /  -2.5 °C 30.23in /  1023.6hPa North 4.0mph /  6.4km/h 13.0mph /  20.9km/h 23% 0.00in /  0mm 738.0 W/m2
13:33 66.4 °F /  19.1 °C 27.5 °F /  -2.5 °C 30.23in /  1023.6hPa East 2.0mph /  3.2km/h 8.0mph /  12.9km/h 23% 0.00in /  0mm 728.0 W/m2
13:40 66.6 °F /  19.2 °C 27.7 °F /  -2.4 °C 30.22in /  1023.2hPa East 2.9mph /  4.7km/h 7.0mph /  11.3km/h 23% 0.00in /  0mm 715.0 W/m2
13:46 66.6 °F /  19.2 °C 27.7 °F /  -2.4 °C 30.22in /  1023.2hPa NNE 2.0mph /  3.2km/h 11.0mph /  17.7km/h 23% 0.00in /  0mm 703.0 W/m2
13:52 66.4 °F /  19.1 °C 27.5 °F /  -2.5 °C 30.22in /  1023.2hPa NNE 4.9mph /  7.9km/h 9.0mph /  14.5km/h 23% 0.00in /  0mm 689.0 W/m2
13:58 66.4 °F /  19.1 °C 27.5 °F /  -2.5 °C 30.22in /  1023.2hPa NNE 0.9mph /  1.4km/h 9.0mph /  14.5km/h 23% 0.00in /  0mm 673.0 W/m2
14:04 66.6 °F /  19.2 °C 27.7 °F /  -2.4 °C 30.21in /  1022.9hPa Calm   10.0mph /  16.1km/h 23% 0.00in /  0mm 661.0 W/m2
14:10 66.9 °F /  19.4 °C 26.8 °F /  -2.9 °C 30.21in /  1022.9hPa North 0.9mph /  1.4km/h 7.0mph /  11.3km/h 22% 0.00in /  0mm 647.0 W/m2
14:17 66.9 °F /  19.4 °C 26.8 °F /  -2.9 °C 30.21in /  1022.9hPa ESE 4.9mph /  7.9km/h 12.0mph /  19.3km/h 22% 0.00in /  0mm 619.0 W/m2
14:23 66.9 °F /  19.4 °C 26.8 °F /  -2.9 °C 30.21in /  1022.9hPa SW 6.9mph /  11.1km/h 7.0mph /  11.3km/h 22% 0.00in /  0mm 617.0 W/m2
14:29 66.6 °F /  19.2 °C 26.6 °F /  -3 °C 30.22in /  1023.2hPa SE 4.9mph /  7.9km/h 9.0mph /  14.5km/h 22% 0.00in /  0mm 591.0 W/m2
14:35 66.7 °F /  19.3 °C 26.6 °F /  -3 °C 30.22in /  1023.2hPa SE 4.0mph /  6.4km/h 7.0mph /  11.3km/h 22% 0.00in /  0mm 570.0 W/m2
14:41 66.7 °F /  19.3 °C 26.6 °F /  -3 °C 30.22in /  1023.2hPa SE 4.0mph /  6.4km/h 7.0mph /  11.3km/h 22% 0.00in /  0mm 563.0 W/m2
14:47 66.7 °F /  19.3 °C 25.5 °F /  -3.6 °C 30.22in /  1023.2hPa SSE 4.9mph /  7.9km/h 6.0mph /  9.7km/h 21% 0.00in /  0mm 540.0 W/m2
14:53 66.6 °F /  19.2 °C 25.3 °F /  -3.7 °C 30.22in /  1023.2hPa SE 4.9mph /  7.9km/h 10.0mph /  16.1km/h 21% 0.00in /  0mm 522.0 W/m2
14:59 66.4 °F /  19.1 °C 26.4 °F /  -3.1 °C 30.22in /  1023.2hPa Calm   4.0mph /  6.4km/h 22% 0.00in /  0mm 508.0 W/m2
15:05 66.2 °F /  19 °C 25.2 °F /  -3.8 °C 30.22in /  1023.2hPa South 2.9mph /  4.7km/h 5.0mph /  8km/h 21% 0.00in /  0mm 487.0 W/m2
15:12 66.2 °F /  19 °C 26.2 °F /  -3.2 °C 30.23in /  1023.6hPa SSE 2.9mph /  4.7km/h 8.0mph /  12.9km/h 22% 0.00in /  0mm 466.0 W/m2
15:18 66.4 °F /  19.1 °C 25.3 °F /  -3.7 °C 30.23in /  1023.6hPa Calm   3.0mph /  4.8km/h 21% 0.00in /  0mm 450.0 W/m2
15:24 66.4 °F /  19.1 °C 25.3 °F /  -3.7 °C 30.23in /  1023.6hPa Calm   1.0mph /  1.6km/h 21% 0.00in /  0mm 427.0 W/m2
15:30 66.2 °F /  19 °C 25.2 °F /  -3.8 °C 30.24in /  1023.9hPa South 2.9mph /  4.7km/h 7.0mph /  11.3km/h 21% 0.00in /  0mm 406.0 W/m2
15:36 66.2 °F /  19 °C 25.2 °F /  -3.8 °C 30.23in /  1023.6hPa SW 2.0mph /  3.2km/h 5.0mph /  8km/h 21% 0.00in /  0mm 388.0 W/m2
15:42 66.0 °F /  18.9 °C 25.0 °F /  -3.9 °C 30.24in /  1023.9hPa South 2.0mph /  3.2km/h 8.0mph /  12.9km/h 21% 0.00in /  0mm 366.0 W/m2
15:48 65.7 °F /  18.7 °C 24.6 °F /  -4.1 °C 30.24in /  1023.9hPa ESE 4.9mph /  7.9km/h 6.0mph /  9.7km/h 21% 0.00in /  0mm 343.0 W/m2
15:54 65.1 °F /  18.4 °C 24.3 °F /  -4.3 °C 30.24in /  1023.9hPa SSW 4.0mph /  6.4km/h 8.0mph /  12.9km/h 21% 0.00in /  0mm 316.0 W/m2
16:00 64.8 °F /  18.2 °C 23.9 °F /  -4.5 °C 30.24in /  1023.9hPa South 0.9mph /  1.4km/h 4.0mph /  6.4km/h 21% 0.00in /  0mm 227.0 W/m2
16:07 64.4 °F /  18 °C 23.5 °F /  -4.7 °C 30.24in /  1023.9hPa South 2.0mph /  3.2km/h 8.0mph /  12.9km/h 21% 0.00in /  0mm 40.0 W/m2
16:13 64.0 °F /  17.8 °C 23.4 °F /  -4.8 °C 30.24in /  1023.9hPa Calm   6.0mph /  9.7km/h 21% 0.00in /  0mm 35.0 W/m2
16:19 63.7 °F /  17.6 °C 24.1 °F /  -4.4 °C 30.25in /  1024.3hPa SE 2.0mph /  3.2km/h 8.0mph /  12.9km/h 22% 0.00in /  0mm 33.0 W/m2
16:25 63.1 °F /  17.3 °C 23.7 °F /  -4.6 °C 30.25in /  1024.3hPa SSE 4.0mph /  6.4km/h 5.0mph /  8km/h 22% 0.00in /  0mm 53.0 W/m2
16:31 62.8 °F /  17.1 °C 23.4 °F /  -4.8 °C 30.25in /  1024.3hPa SSE 2.9mph /  4.7km/h 7.0mph /  11.3km/h 22% 0.00in /  0mm 62.0 W/m2
16:37 62.4 °F /  16.9 °C 23.0 °F /  -5 °C 30.25in /  1024.3hPa SE 4.9mph /  7.9km/h 5.0mph /  8km/h 22% 0.00in /  0mm 95.0 W/m2
16:44 62.1 °F /  16.7 °C 23.9 °F /  -4.5 °C 30.25in /  1024.3hPa ESE 2.9mph /  4.7km/h 4.0mph /  6.4km/h 23% 0.00in /  0mm 35.0 W/m2
16:50 61.9 °F /  16.6 °C 23.7 °F /  -4.6 °C 30.26in /  1024.6hPa Calm   3.0mph /  4.8km/h 23% 0.00in /  0mm 26.0 W/m2
16:56 61.5 °F /  16.4 °C 23.4 °F /  -4.8 °C 30.26in /  1024.6hPa South 2.0mph /  3.2km/h 6.0mph /  9.7km/h 23% 0.00in /  0mm 28.0 W/m2
17:02 61.0 °F /  16.1 °C 23.9 °F /  -4.5 °C 30.25in /  1024.3hPa Calm   3.0mph /  4.8km/h 24% 0.00in /  0mm 19.0 W/m2
17:08 60.6 °F /  15.9 °C 23.5 °F /  -4.7 °C 30.26in /  1024.6hPa SSE 2.9mph /  4.7km/h 4.0mph /  6.4km/h 24% 0.00in /  0mm 16.0 W/m2
17:14 60.3 °F /  15.7 °C 23.4 °F /  -4.8 °C 30.26in /  1024.6hPa ESE 2.9mph /  4.7km/h 6.0mph /  9.7km/h 24% 0.00in /  0mm 12.0 W/m2
17:20 59.7 °F /  15.4 °C 23.9 °F /  -4.5 °C 30.27in /  1024.9hPa Calm   5.0mph /  8km/h 25% 0.00in /  0mm 11.0 W/m2
17:26 59.2 °F /  15.1 °C 23.4 °F /  -4.8 °C 30.27in /  1024.9hPa Calm   7.0mph /  11.3km/h 25% 0.00in /  0mm 7.0 W/m2
17:32 58.6 °F /  14.8 °C 23.9 °F /  -4.5 °C 30.28in /  1025.3hPa SE 0.9mph /  1.4km/h 5.0mph /  8km/h 26% 0.00in /  0mm 5.0 W/m2
17:39 57.9 °F /  14.4 °C 23.2 °F /  -4.9 °C 30.28in /  1025.3hPa ENE 2.9mph /  4.7km/h 9.0mph /  14.5km/h 26% 0.00in /  0mm 0.0 W/m2
17:45 57.4 °F /  14.1 °C 23.7 °F /  -4.6 °C 30.28in /  1025.3hPa SE 0.9mph /  1.4km/h 4.0mph /  6.4km/h 27% 0.00in /  0mm 0.0 W/m2
17:51 56.7 °F /  13.7 °C 23.9 °F /  -4.5 °C 30.29in /  1025.6hPa SSE 0.9mph /  1.4km/h 5.0mph /  8km/h 28% 0.00in /  0mm 0.0 W/m2
17:57 56.1 °F /  13.4 °C 23.4 °F /  -4.8 °C 30.29in /  1025.6hPa ESE 2.9mph /  4.7km/h 7.0mph /  11.3km/h 28% 0.00in /  0mm 0.0 W/m2
18:03 55.6 °F /  13.1 °C 23.9 °F /  -4.5 °C 30.29in /  1025.6hPa SE 0.9mph /  1.4km/h 7.0mph /  11.3km/h 29% 0.00in /  0mm 0.0 W/m2
18:09 55.2 °F /  12.9 °C 24.3 °F /  -4.3 °C 30.30in /  1026hPa Calm   5.0mph /  8km/h 30% 0.00in /  0mm 0.0 W/m2
18:15 54.9 °F /  12.7 °C 24.1 °F /  -4.4 °C 30.30in /  1026hPa SE 0.9mph /  1.4km/h 6.0mph /  9.7km/h 30% 0.00in /  0mm 0.0 W/m2
18:22 54.3 °F /  12.4 °C 24.3 °F /  -4.3 °C 30.30in /  1026hPa Calm   5.0mph /  8km/h 31% 0.00in /  0mm 0.0 W/m2
18:28 54.1 °F /  12.3 °C 24.1 °F /  -4.4 °C 30.30in /  1026hPa Calm   3.0mph /  4.8km/h 31% 0.00in /  0mm 0.0 W/m2
18:34 53.8 °F /  12.1 °C 24.6 °F /  -4.1 °C 30.31in /  1026.3hPa Calm   5.0mph /  8km/h 32% 0.00in /  0mm 0.0 W/m2
18:40 53.4 °F /  11.9 °C 24.3 °F /  -4.3 °C 30.31in /  1026.3hPa Calm   4.0mph /  6.4km/h 32% 0.00in /  0mm 0.0 W/m2
18:46 53.1 °F /  11.7 °C 23.9 °F /  -4.5 °C 30.31in /  1026.3hPa Calm   1.0mph /  1.6km/h 32% 0.00in /  0mm 0.0 W/m2
18:52 52.9 °F /  11.6 °C 24.6 °F /  -4.1 °C 30.31in /  1026.3hPa East 4.0mph /  6.4km/h 6.0mph /  9.7km/h 33% 0.00in /  0mm 0.0 W/m2
18:58 52.3 °F /  11.3 °C 24.1 °F /  -4.4 °C 30.32in /  1026.6hPa Calm   4.0mph /  6.4km/h 33% 0.00in /  0mm 0.0 W/m2
19:04 52.2 °F /  11.2 °C 24.6 °F /  -4.1 °C 30.32in /  1026.6hPa Calm   3.0mph /  4.8km/h 34% 0.00in /  0mm 0.0 W/m2
19:11 52.0 °F /  11.1 °C 24.4 °F /  -4.2 °C 30.32in /  1026.6hPa ENE 2.0mph /  3.2km/h 6.0mph /  9.7km/h 34% 0.00in /  0mm 0.0 W/m2
19:17 51.6 °F /  10.9 °C 24.1 °F /  -4.4 °C 30.33in /  1027hPa Calm   4.0mph /  6.4km/h 34% 0.00in /  0mm 0.0 W/m2
19:23 51.3 °F /  10.7 °C 24.6 °F /  -4.1 °C 30.33in /  1027hPa Calm   3.0mph /  4.8km/h 35% 0.00in /  0mm 0.0 W/m2
19:29 50.9 °F /  10.5 °C 24.8 °F /  -4 °C 30.34in /  1027.3hPa ENE 0.9mph /  1.4km/h 5.0mph /  8km/h 36% 0.00in /  0mm 0.0 W/m2
19:35 50.7 °F /  10.4 °C 24.8 °F /  -4 °C 30.34in /  1027.3hPa Calm   3.0mph /  4.8km/h 36% 0.00in /  0mm 0.0 W/m2
19:41 50.4 °F /  10.2 °C 24.4 °F /  -4.2 °C 30.35in /  1027.7hPa Calm   5.0mph /  8km/h 36% 0.00in /  0mm 0.0 W/m2
19:47 50.2 °F /  10.1 °C 25.0 °F /  -3.9 °C 30.34in /  1027.3hPa North 4.0mph /  6.4km/h 6.0mph /  9.7km/h 37% 0.00in /  0mm 0.0 W/m2
19:53 49.8 °F /  9.9 °C 24.6 °F /  -4.1 °C 30.35in /  1027.7hPa Calm   5.0mph /  8km/h 37% 0.00in /  0mm 0.0 W/m2
19:59 49.6 °F /  9.8 °C 24.4 °F /  -4.2 °C 30.35in /  1027.7hPa Calm   4.0mph /  6.4km/h 37% 0.00in /  0mm 0.0 W/m2
20:05 49.5 °F /  9.7 °C 25.0 °F /  -3.9 °C 30.35in /  1027.7hPa Calm   6.0mph /  9.7km/h 38% 0.00in /  0mm 0.0 W/m2
20:11 49.3 °F /  9.6 °C 24.8 °F /  -4 °C 30.35in /  1027.7hPa NE 0.9mph /  1.4km/h 8.0mph /  12.9km/h 38% 0.00in /  0mm 0.0 W/m2
20:17 49.3 °F /  9.6 °C 24.8 °F /  -4 °C 30.35in /  1027.7hPa NE 2.9mph /  4.7km/h 4.0mph /  6.4km/h 38% 0.00in /  0mm 0.0 W/m2
20:23 48.9 °F /  9.4 °C 24.4 °F /  -4.2 °C 30.36in /  1028hPa Calm   5.0mph /  8km/h 38% 0.00in /  0mm 0.0 W/m2
20:29 48.7 °F /  9.3 °C 24.3 °F /  -4.3 °C 30.37in /  1028.3hPa Calm     38% 0.00in /  0mm 0.0 W/m2
20:36 48.6 °F /  9.2 °C 24.8 °F /  -4 °C 30.37in /  1028.3hPa Calm   2.0mph /  3.2km/h 39% 0.00in /  0mm 0.0 W/m2
20:42 48.2 °F /  9 °C 24.4 °F /  -4.2 °C 30.37in /  1028.3hPa Calm   2.0mph /  3.2km/h 39% 0.00in /  0mm 0.0 W/m2
20:48 48.0 °F /  8.9 °C 24.3 °F /  -4.3 °C 30.38in /  1028.7hPa Calm   1.0mph /  1.6km/h 39% 0.00in /  0mm 0.0 W/m2
20:54 47.8 °F /  8.8 °C 24.6 °F /  -4.1 °C 30.38in /  1028.7hPa Calm   1.0mph /  1.6km/h 40% 0.00in /  0mm 0.0 W/m2
21:00 47.7 °F /  8.7 °C 24.4 °F /  -4.2 °C 30.39in /  1029hPa Calm   3.0mph /  4.8km/h 40% 0.00in /  0mm 0.0 W/m2
21:06 47.5 °F /  8.6 °C 24.4 °F /  -4.2 °C 30.39in /  1029hPa Calm   2.0mph /  3.2km/h 40% 0.00in /  0mm 0.0 W/m2
21:12 47.5 °F /  8.6 °C 24.4 °F /  -4.2 °C 30.39in /  1029hPa NE 2.0mph /  3.2km/h 3.0mph /  4.8km/h 40% 0.00in /  0mm 0.0 W/m2
21:18 47.1 °F /  8.4 °C 24.1 °F /  -4.4 °C 30.39in /  1029hPa Calm   1.0mph /  1.6km/h 40% 0.00in /  0mm 0.0 W/m2
21:24 47.1 °F /  8.4 °C 24.1 °F /  -4.4 °C 30.39in /  1029hPa Calm   2.0mph /  3.2km/h 40% 0.00in /  0mm 0.0 W/m2
21:30 46.9 °F /  8.3 °C 24.4 °F /  -4.2 °C 30.39in /  1029hPa Calm   3.0mph /  4.8km/h 41% 0.00in /  0mm 0.0 W/m2
21:36 46.8 °F /  8.2 °C 24.3 °F /  -4.3 °C 30.40in /  1029.3hPa Calm   1.0mph /  1.6km/h 41% 0.00in /  0mm 0.0 W/m2
21:42 46.6 °F /  8.1 °C 24.1 °F /  -4.4 °C 30.40in /  1029.3hPa Calm   2.0mph /  3.2km/h 41% 0.00in /  0mm 0.0 W/m2
21:48 46.6 °F /  8.1 °C 24.1 °F /  -4.4 °C 30.40in /  1029.3hPa ENE 4.0mph /  6.4km/h 5.0mph /  8km/h 41% 0.00in /  0mm 0.0 W/m2
21:54 46.6 °F /  8.1 °C 24.1 °F /  -4.4 °C 30.40in /  1029.3hPa Calm   2.0mph /  3.2km/h 41% 0.00in /  0mm 0.0 W/m2
22:00 46.6 °F /  8.1 °C 24.1 °F /  -4.4 °C 30.40in /  1029.3hPa Calm   4.0mph /  6.4km/h 41% 0.00in /  0mm 0.0 W/m2
22:06 46.6 °F /  8.1 °C 24.1 °F /  -4.4 °C 30.40in /  1029.3hPa Calm   4.0mph /  6.4km/h 41% 0.00in /  0mm 0.0 W/m2
22:12 46.2 °F /  7.9 °C 23.9 °F /  -4.5 °C 30.40in /  1029.3hPa SSE 2.0mph /  3.2km/h 5.0mph /  8km/h 41% 0.00in /  0mm 0.0 W/m2
22:18 46.4 °F /  8 °C 23.9 °F /  -4.5 °C 30.40in /  1029.3hPa SE 0.9mph /  1.4km/h 4.0mph /  6.4km/h 41% 0.00in /  0mm 0.0 W/m2
22:24 46.4 °F /  8 °C 23.9 °F /  -4.5 °C 30.40in /  1029.3hPa SSE 2.0mph /  3.2km/h 7.0mph /  11.3km/h 41% 0.00in /  0mm 0.0 W/m2
22:30 46.6 °F /  8.1 °C 24.1 °F /  -4.4 °C 30.40in /  1029.3hPa Calm   4.0mph /  6.4km/h 41% 0.00in /  0mm 0.0 W/m2
22:36 46.6 °F /  8.1 °C 24.1 °F /  -4.4 °C 30.40in /  1029.3hPa Calm   7.0mph /  11.3km/h 41% 0.00in /  0mm 0.0 W/m2
22:42 46.6 °F /  8.1 °C 24.1 °F /  -4.4 °C 30.40in /  1029.3hPa ENE 0.9mph /  1.4km/h 4.0mph /  6.4km/h 41% 0.00in /  0mm 0.0 W/m2
22:48 46.4 °F /  8 °C 23.9 °F /  -4.5 °C 30.40in /  1029.3hPa ESE 0.9mph /  1.4km/h 7.0mph /  11.3km/h 41% 0.00in /  0mm 0.0 W/m2
22:54 46.2 °F /  7.9 °C 23.9 °F /  -4.5 °C 30.40in /  1029.3hPa SE 0.9mph /  1.4km/h 4.0mph /  6.4km/h 41% 0.00in /  0mm 0.0 W/m2
23:00 46.2 °F /  7.9 °C 23.9 °F /  -4.5 °C 30.40in /  1029.3hPa Calm   5.0mph /  8km/h 41% 0.00in /  0mm 0.0 W/m2
23:06 46.0 °F /  7.8 °C 23.0 °F /  -5 °C 30.40in /  1029.3hPa Calm   4.0mph /  6.4km/h 40% 0.00in /  0mm 0.0 W/m2
23:12 46.0 °F /  7.8 °C 23.0 °F /  -5 °C 30.40in /  1029.3hPa Calm   3.0mph /  4.8km/h 40% 0.00in /  0mm 0.0 W/m2
23:18 45.9 °F /  7.7 °C 22.8 °F /  -5.1 °C 30.40in /  1029.3hPa Calm   3.0mph /  4.8km/h 40% 0.00in /  0mm 0.0 W/m2
23:24 45.7 °F /  7.6 °C 22.8 °F /  -5.1 °C 30.40in /  1029.3hPa Calm   2.0mph /  3.2km/h 40% 0.00in /  0mm 0.0 W/m2
23:30 45.3 °F /  7.4 °C 22.5 °F /  -5.3 °C 30.40in /  1029.3hPa Calm     40% 0.00in /  0mm 0.0 W/m2
23:37 45.1 °F /  7.3 °C 22.3 °F /  -5.4 °C 30.40in /  1029.3hPa Calm     40% 0.00in /  0mm 0.0 W/m2
23:43 44.8 °F /  7.1 °C 22.5 °F /  -5.3 °C 30.40in /  1029.3hPa Calm     41% 0.00in /  0mm 0.0 W/m2
23:49 44.4 °F /  6.9 °C 22.1 °F /  -5.5 °C 30.40in /  1029.3hPa Calm     41% 0.00in /  0mm 0.0 W/m2
23:55 44.1 °F /  6.7 °C 21.9 °F /  -5.6 °C 30.40in /  1029.3hPa Calm   1.0mph /  1.6km/h 41% 0.00in /  0mm 0.0 W/m2
Olympia, Windhoek, Namibia
Compliments of Weather Underground - 3 mb